Time;durP1;ratioP1;P1;durP2;ratioP2;P2;SDS_P1;SDS_P2;PMS_P1;PMS_P2;Temp;Humidity;BMP_temperature;BMP_pressure;BME280_temperature;BME280_humidity;BME280_pressure;Samples;Min_cycle;Max_cycle;Signal;HPM_P1;HPM_P2
2022/01/07 00:00:18;;;;;;;23.97;7.57;;;;;;;-1.46;79.30;101004.78;1667623;86;21483;-75
2022/01/07 00:02:54;;;;;;;41.87;13.27;;;;;;;-1.48;79.01;100996.16;1667302;86;21099;-71
2022/01/07 00:05:23;;;;;;;23.10;8.83;;;;;;;-1.49;79.30;100991.00;1662938;86;21154;-72
2022/01/07 00:07:50;;;;;;;34.60;10.37;;;;;;;-1.45;79.36;100990.22;1652552;86;21090;-72
2022/01/07 00:10:20;;;;;;;43.47;12.70;;;;;;;-1.44;79.40;100988.08;1652561;86;21041;-72
2022/01/07 00:12:49;;;;;;;77.47;24.57;;;;;;;-1.44;79.49;100985.13;1652692;86;21498;-72
2022/01/07 00:15:16;;;;;;;78.43;22.87;;;;;;;-1.45;79.36;100988.51;1652516;86;21182;-72
2022/01/07 00:17:45;;;;;;;48.70;16.00;;;;;;;-1.47;79.06;100991.48;1652528;86;21156;-72
2022/01/07 00:20:14;;;;;;;49.20;15.00;;;;;;;-1.48;79.36;100989.73;1652477;86;21420;-73
2022/01/07 00:22:43;;;;;;;26.50;8.70;;;;;;;-1.44;79.57;100989.37;1652550;86;21052;-72
2022/01/07 00:25:13;;;;;;;24.53;9.30;;;;;;;-1.43;79.53;100984.70;1652610;86;21033;-72
2022/01/07 00:27:41;;;;;;;20.10;7.03;;;;;;;-1.38;79.76;100985.66;1652573;86;21033;-72
2022/01/07 00:30:11;;;;;;;20.17;7.73;;;;;;;-1.38;79.55;100985.66;1652644;86;21329;-72
2022/01/07 00:32:39;;;;;;;25.50;9.73;;;;;;;-1.37;79.69;100979.25;1652671;86;21301;-71
2022/01/07 00:35:09;;;;;;;23.00;7.93;;;;;;;-1.35;79.76;100980.58;1652593;86;21085;-72
2022/01/07 00:37:36;;;;;;;28.03;8.60;;;;;;;-1.37;79.50;100978.39;1652691;86;21494;-72
2022/01/07 00:40:08;;;;;;;18.97;7.33;;;;;;;-1.39;79.54;100983.91;1652562;86;21033;-76
2022/01/07 00:42:35;;;;;;;15.53;5.80;;;;;;;-1.40;79.45;100986.05;1652834;86;21132;-74
2022/01/07 00:45:04;;;;;;;25.90;8.47;;;;;;;-1.43;79.46;100987.27;1652345;86;21010;-76
2022/01/07 00:47:31;;;;;;;27.53;9.03;;;;;;;-1.46;79.46;100985.50;1652752;86;21034;-72
2022/01/07 00:49:58;;;;;;;25.20;8.00;;;;;;;-1.46;79.47;100989.78;1652843;86;21054;-72
2022/01/07 00:52:26;;;;;;;24.97;8.07;;;;;;;-1.50;79.53;100992.67;1652624;86;21140;-73
2022/01/07 00:54:56;;;;;;;20.23;7.57;;;;;;;-1.50;79.70;100991.39;1652751;86;21207;-78
2022/01/07 00:57:24;;;;;;;15.60;6.70;;;;;;;-1.50;79.63;100995.67;1652814;86;24595;-72
2022/01/07 00:59:52;;;;;;;23.47;7.97;;;;;;;-1.52;79.57;100990.52;1652523;86;21494;-76
2022/01/07 01:02:19;;;;;;;23.70;7.23;;;;;;;-1.50;80.08;100990.11;1652844;86;21010;-72
2022/01/07 01:04:46;;;;;;;20.60;7.00;;;;;;;-1.46;79.86;100988.07;1652643;86;21507;-74
2022/01/07 01:07:15;;;;;;;16.80;6.73;;;;;;;-1.46;79.79;100991.06;1645804;85;21496;-71
2022/01/07 01:09:43;;;;;;;21.53;8.63;;;;;;;-1.45;79.75;100987.64;1645488;87;21041;-72
2022/01/07 01:12:11;;;;;;;22.67;9.03;;;;;;;-1.50;79.80;100983.68;1645490;87;20938;-72
2022/01/07 01:14:39;;;;;;;53.93;19.10;;;;;;;-1.49;79.98;100987.14;1645791;87;20973;-72
2022/01/07 01:17:08;;;;;;;44.63;13.93;;;;;;;-1.45;80.07;100985.94;1645409;87;21046;-72
2022/01/07 01:19:35;;;;;;;36.53;11.83;;;;;;;-1.48;80.05;100982.02;1645579;87;21289;-72
2022/01/07 01:22:04;;;;;;;24.40;9.57;;;;;;;-1.46;80.04;100976.92;1645279;87;21037;-72
2022/01/07 01:24:32;;;;;;;25.13;11.40;;;;;;;-1.45;80.07;100979.51;1645627;87;20922;-72
2022/01/07 01:26:58;;;;;;;24.90;11.70;;;;;;;-1.45;79.97;100981.22;1645416;87;21000;-72
2022/01/07 01:29:26;;;;;;;21.13;8.90;;;;;;;-1.49;80.15;100980.30;1645768;87;21598;-72
2022/01/07 01:31:53;;;;;;;15.13;7.60;;;;;;;-1.47;80.22;100979.02;1645305;87;21988;-72
2022/01/07 01:34:20;;;;;;;18.90;7.07;;;;;;;-1.49;80.08;100985.86;1645587;87;21029;-73
2022/01/07 01:36:47;;;;;;;21.20;7.37;;;;;;;-1.51;79.76;100991.38;1645459;87;21060;-72
2022/01/07 01:39:14;;;;;;;17.57;7.13;;;;;;;-1.63;79.54;100988.99;1645679;87;20931;-71
2022/01/07 01:41:43;;;;;;;15.77;6.50;;;;;;;-1.65;80.01;100984.23;1645537;87;21022;-76
2022/01/07 01:44:10;;;;;;;16.27;7.53;;;;;;;-1.69;79.85;100982.83;1645353;87;21075;-72
2022/01/07 01:46:38;;;;;;;17.53;7.40;;;;;;;-1.74;79.87;100983.17;1645431;87;21038;-72
2022/01/07 01:49:06;;;;;;;17.83;7.07;;;;;;;-1.75;80.13;100981.42;1645612;87;21054;-72
2022/01/07 01:51:34;;;;;;;13.57;7.07;;;;;;;-1.78;80.05;100989.92;1645348;87;21064;-72
2022/01/07 01:54:03;;;;;;;16.53;6.97;;;;;;;-1.81;80.15;100984.72;1645616;87;21046;-72
2022/01/07 01:56:31;;;;;;;14.70;6.90;;;;;;;-1.77;80.45;100983.08;1645292;87;21156;-72
2022/01/07 01:58:58;;;;;;;16.07;6.60;;;;;;;-1.80;80.16;100983.48;1645440;87;21490;-72
2022/01/07 02:01:25;;;;;;;21.03;7.97;;;;;;;-1.87;79.97;100977.73;1645385;87;21030;-76
2022/01/07 02:03:52;;;;;;;19.70;7.17;;;;;;;-1.93;80.03;100976.32;1645674;87;21002;-72
2022/01/07 02:06:20;;;;;;;16.47;6.40;;;;;;;-1.90;80.53;100976.39;1645303;85;21082;-72
2022/01/07 02:08:48;;;;;;;15.50;7.27;;;;;;;-1.86;80.68;100981.17;1645671;87;21141;-71
2022/01/07 02:11:15;;;;;;;15.63;6.57;;;;;;;-1.79;80.90;100976.63;1645271;87;21542;-72
2022/01/07 02:13:44;;;;;;;14.57;6.93;;;;;;;-1.79;80.57;100974.06;1645609;87;21026;-71
2022/01/07 02:16:11;;;;;;;13.30;6.93;;;;;;;-1.78;80.70;100977.07;1645440;87;21034;-72
2022/01/07 02:18:38;;;;;;;17.37;7.53;;;;;;;-1.78;80.61;100981.35;1645366;87;21519;-72
2022/01/07 02:21:05;;;;;;;15.97;6.93;;;;;;;-1.78;80.53;100976.21;1645428;87;22022;-72
2022/01/07 02:23:32;;;;;;;15.97;7.13;;;;;;;-1.81;80.38;100983.44;1645292;87;21520;-72
2022/01/07 02:26:00;;;;;;;15.43;6.90;;;;;;;-1.86;80.40;100979.49;1635639;87;21125;-72
2022/01/07 02:28:28;;;;;;;18.47;6.63;;;;;;;-1.88;80.44;100977.72;1638543;87;21034;-72
2022/01/07 02:30:55;;;;;;;16.47;7.27;;;;;;;-1.89;80.53;100972.11;1638591;87;21591;-77
2022/01/07 02:33:22;;;;;;;16.43;6.30;;;;;;;-1.87;80.68;100970.45;1638551;87;21121;-75
2022/01/07 02:35:49;;;;;;;16.70;6.83;;;;;;;-1.85;80.67;100967.09;1638274;87;21058;-72
2022/01/07 02:38:17;;;;;;;15.07;6.43;;;;;;;-1.86;80.50;100976.03;1638665;87;21481;-72
2022/01/07 02:40:45;;;;;;;13.50;6.17;;;;;;;-1.87;80.66;100965.31;1638438;87;21031;-73
2022/01/07 02:43:12;;;;;;;15.37;5.90;;;;;;;-1.90;80.42;100958.83;1638583;87;21042;-71
2022/01/07 02:45:39;;;;;;;13.97;5.77;;;;;;;-1.95;80.33;100959.99;1638077;87;21164;-72
2022/01/07 02:48:06;;;;;;;13.83;6.03;;;;;;;-1.96;80.51;100964.70;1611061;89;21553;-75
2022/01/07 02:50:37;;;;;;;14.00;6.70;;;;;;;-1.97;80.49;100968.07;1638519;87;21043;-71
2022/01/07 02:53:08;;;;;;;11.53;5.80;;;;;;;-2.00;80.59;100959.44;1611171;88;21054;-73
2022/01/07 02:55:35;;;;;;;15.67;5.83;;;;;;;-1.99;80.65;100956.06;1638489;87;21014;-72
2022/01/07 02:58:04;;;;;;;15.57;6.10;;;;;;;-2.00;80.78;100954.30;1611200;89;21991;-74
2022/01/07 03:00:32;;;;;;;14.57;5.93;;;;;;;-1.95;80.82;100952.28;1638472;87;21548;-72
2022/01/07 03:03:01;;;;;;;17.57;6.30;;;;;;;-1.92;81.18;100950.20;1610901;89;21452;-76
2022/01/07 03:05:28;;;;;;;11.43;5.67;;;;;;;-1.89;80.91;100948.98;1638793;87;21042;-71
2022/01/07 03:07:56;;;;;;;15.23;6.33;;;;;;;-1.85;81.10;100947.81;1622009;88;21110;-76
2022/01/07 03:10:29;;;;;;;15.73;5.70;;;;;;;-1.83;80.93;100945.27;1649295;87;21147;-71
2022/01/07 03:13:00;;;;;;;18.30;8.87;;;;;;;-1.82;80.99;100947.02;1650923;86;21046;-72
2022/01/07 03:15:28;;;;;;;23.15;9.13;;;;;;;-1.80;80.96;100940.22;1623065;88;21394;-71
2022/01/07 03:17:55;;;;;;;22.03;9.40;;;;;;;-1.86;80.43;100943.91;1650669;87;21118;-73
2022/01/07 03:20:23;;;;;;;22.37;9.33;;;;;;;-1.96;80.38;100945.42;1650908;87;21026;-72
2022/01/07 03:22:51;;;;;;;23.80;10.20;;;;;;;-2.03;80.27;100940.97;1650905;87;21138;-72
2022/01/07 03:25:18;;;;;;;20.73;9.60;;;;;;;-2.12;80.28;100941.63;1650646;87;21106;-71
2022/01/07 03:27:46;;;;;;;27.57;9.43;;;;;;;-2.19;80.26;100938.87;1650977;86;21477;-71
2022/01/07 03:30:17;;;;;;;21.73;8.80;;;;;;;-2.24;80.29;100938.79;1650822;86;21028;-74
2022/01/07 03:32:44;;;;;;;19.47;8.77;;;;;;;-2.27;80.49;100932.30;1650852;87;21058;-74
2022/01/07 03:35:13;;;;;;;16.27;7.67;;;;;;;-2.28;80.64;100936.96;1651182;86;21193;-73
2022/01/07 03:37:41;;;;;;;18.23;6.40;;;;;;;-2.27;80.62;100932.30;1650882;86;20986;-73
2022/01/07 03:40:12;;;;;;;16.87;7.13;;;;;;;-2.26;80.76;100935.31;1650850;87;21018;-76
2022/01/07 03:42:41;;;;;;;13.90;6.73;;;;;;;-2.26;80.90;100932.73;1651200;86;21977;-72
2022/01/07 03:45:09;;;;;;;14.53;6.13;;;;;;;-2.27;80.71;100926.74;1623218;88;21066;-71
2022/01/07 03:47:37;;;;;;;16.60;7.30;;;;;;;-2.30;80.48;100924.50;1650654;87;21152;-71
2022/01/07 03:50:09;;;;;;;16.10;6.30;;;;;;;-2.30;80.87;100927.06;1651003;86;21026;-72
2022/01/07 03:52:36;;;;;;;14.40;6.10;;;;;;;-2.24;80.84;100932.37;1623120;88;21061;-72
2022/01/07 03:55:06;;;;;;;11.63;5.90;;;;;;;-2.22;80.97;100931.97;1649512;87;21563;-76
2022/01/07 03:57:33;;;;;;;11.18;6.15;;;;;;;-2.22;80.61;100934.53;1651178;86;21041;-72
2022/01/07 04:00:00;;;;;;;19.13;7.17;;;;;;;-2.28;80.52;100933.97;1650937;87;21228;-72
2022/01/07 04:02:27;;;;;;;19.27;6.70;;;;;;;-2.33;80.51;100933.02;1651008;86;21023;-73
2022/01/07 04:04:55;;;;;;;13.90;6.70;;;;;;;-2.34;80.61;100935.55;1650909;87;21542;-73
2022/01/07 04:07:22;;;;;;;16.57;6.10;;;;;;;-2.37;80.48;100931.20;1650828;86;21058;-71
2022/01/07 04:09:49;;;;;;;17.07;7.07;;;;;;;-2.33;80.71;100927.89;1650801;87;21294;-72
2022/01/07 04:12:16;;;;;;;23.53;7.70;;;;;;;-2.29;80.94;100930.10;1622869;88;21146;-71
2022/01/07 04:14:43;;;;;;;16.43;6.67;;;;;;;-2.29;80.75;100936.10;1649367;87;21508;-71
2022/01/07 04:17:10;;;;;;;18.73;7.10;;;;;;;-2.21;81.17;100937.58;1650917;87;21480;-75
2022/01/07 04:19:37;;;;;;;15.00;6.90;;;;;;;-2.13;81.14;100936.05;1650832;87;21050;-72
2022/01/07 04:22:04;;;;;;;16.87;8.07;;;;;;;-2.15;80.73;100933.86;1650805;87;21070;-71
2022/01/07 04:24:31;;;;;;;18.20;7.17;;;;;;;-2.19;80.40;100938.48;1622818;88;21164;-72
2022/01/07 04:26:58;;;;;;;15.40;6.97;;;;;;;-2.26;80.18;100934.02;1651011;86;21586;-72
2022/01/07 04:29:25;;;;;;;19.87;7.73;;;;;;;-2.32;80.25;100920.63;1622672;88;21101;-72
2022/01/07 04:31:52;;;;;;;17.00;7.13;;;;;;;-2.26;80.81;100919.48;1651079;86;21057;-76
2022/01/07 04:34:19;;;;;;;13.40;6.60;;;;;;;-2.22;80.43;100925.97;1650901;87;21602;-72
2022/01/07 04:36:46;;;;;;;23.07;7.50;;;;;;;-2.25;80.32;100919.06;1651018;86;21134;-72
2022/01/07 04:39:13;;;;;;;15.90;6.20;;;;;;;-2.28;80.19;100918.98;1650793;87;21508;-77
2022/01/07 04:41:40;;;;;;;15.60;6.33;;;;;;;-2.36;79.83;100912.80;1650918;86;21100;-72
2022/01/07 04:44:07;;;;;;;19.27;6.87;;;;;;;-2.39;80.06;100912.31;1658565;86;21030;-72
2022/01/07 04:46:34;;;;;;;12.07;6.17;;;;;;;-2.39;79.84;100912.73;1667642;86;21114;-72
2022/01/07 04:49:01;;;;;;;16.47;6.77;;;;;;;-2.45;79.75;100908.33;1667271;86;21504;-72
2022/01/07 04:51:29;;;;;;;16.57;5.80;;;;;;;-2.51;79.76;100906.91;1667595;86;21054;-71
2022/01/07 04:53:56;;;;;;;19.20;6.90;;;;;;;-2.52;80.05;100898.77;1667639;86;21019;-72
2022/01/07 04:56:23;;;;;;;13.60;5.97;;;;;;;-2.50;79.84;100893.22;1667364;86;21548;-71
2022/01/07 04:58:50;;;;;;;16.33;6.17;;;;;;;-2.59;79.70;100899.42;1667562;86;21051;-72
2022/01/07 05:01:17;;;;;;;15.37;6.27;;;;;;;-2.59;80.00;100896.44;1667336;86;21329;-72
2022/01/07 05:03:44;;;;;;;14.93;6.40;;;;;;;-2.59;79.73;100898.14;1667350;86;20996;-73
2022/01/07 05:06:43;;;;;;;15.20;6.13;;;;;;;-2.62;79.85;100891.23;1667313;86;21058;-73
2022/01/07 05:08:40;;;;;;;15.43;5.90;;;;;;;-2.58;79.99;100889.60;1664979;86;21087;-72
2022/01/07 05:11:07;;;;;;;14.47;5.93;;;;;;;-2.58;79.90;100894.73;1667966;86;21054;-74
2022/01/07 05:13:34;;;;;;;13.40;5.80;;;;;;;-2.58;79.89;100890.47;1667782;86;21132;-72
2022/01/07 05:16:01;;;;;;;18.30;7.40;;;;;;;-2.64;79.67;100887.76;1667923;86;20935;-71
2022/01/07 05:18:27;;;;;;;14.43;6.50;;;;;;;-2.66;79.78;100882.13;1667894;86;21023;-72
2022/01/07 05:20:54;;;;;;;14.43;6.47;;;;;;;-2.68;79.73;100879.97;1667879;85;21015;-76
2022/01/07 05:23:21;;;;;;;15.07;6.33;;;;;;;-2.67;79.83;100888.11;1668038;86;21134;-74
2022/01/07 05:25:48;;;;;;;13.83;6.23;;;;;;;-2.67;79.96;100885.13;1667798;86;21749;-72
2022/01/07 05:28:15;;;;;;;14.30;6.30;;;;;;;-2.66;79.98;100881.75;1667994;86;21031;-73
2022/01/07 05:30:42;;;;;;;13.90;6.33;;;;;;;-2.64;79.84;100874.92;1667965;86;21019;-75
2022/01/07 05:33:09;;;;;;;16.07;6.57;;;;;;;-2.66;79.75;100874.05;1668103;86;21495;-72
2022/01/07 05:35:36;;;;;;;20.00;6.83;;;;;;;-2.64;79.90;100876.21;1667814;86;21019;-72
2022/01/07 05:38:03;;;;;;;17.13;6.43;;;;;;;-2.63;79.70;100877.08;1668268;86;21207;-75
2022/01/07 05:40:30;;;;;;;15.70;6.67;;;;;;;-2.71;79.60;100871.78;1667921;86;20923;-72
2022/01/07 05:42:57;;;;;;;19.73;6.60;;;;;;;-2.76;79.56;100872.08;1668071;86;21038;-72
2022/01/07 05:45:24;;;;;;;17.03;7.20;;;;;;;-2.76;79.69;100869.51;1667923;86;21050;-73
2022/01/07 05:47:51;;;;;;;19.47;7.90;;;;;;;-2.84;79.38;100877.43;1667740;86;21058;-73
2022/01/07 05:50:18;;;;;;;22.17;9.27;;;;;;;-2.93;79.25;100880.64;1668087;86;21152;-77
2022/01/07 05:52:45;;;;;;;21.77;8.40;;;;;;;-2.99;79.25;100877.50;1667847;86;21061;-72
2022/01/07 05:55:12;;;;;;;18.30;7.67;;;;;;;-3.06;79.28;100866.62;1667782;85;21024;-72
2022/01/07 05:57:39;;;;;;;17.70;8.13;;;;;;;-3.11;79.44;100869.89;1668177;86;21114;-76
2022/01/07 06:00:09;;;;;;;18.70;7.60;;;;;;;-3.14;79.48;100873.25;1667805;86;21062;-72
2022/01/07 06:02:40;;;;;;;18.83;6.97;;;;;;;-3.19;79.50;100869.69;1668020;86;21458;-72
2022/01/07 06:05:08;;;;;;;21.77;7.30;;;;;;;-3.24;79.49;100867.03;1667691;86;21042;-76
2022/01/07 06:07:35;;;;;;;18.70;7.27;;;;;;;-3.27;79.49;100871.18;1667410;86;21042;-72
2022/01/07 06:10:03;;;;;;;21.03;8.27;;;;;;;-3.27;79.86;100855.41;1667293;86;21019;-75
2022/01/07 06:12:30;;;;;;;20.07;7.20;;;;;;;-3.29;79.73;100863.47;1667279;86;21058;-72
2022/01/07 06:14:58;;;;;;;22.87;8.77;;;;;;;-3.26;80.16;100866.11;1667373;86;21145;-72
2022/01/07 06:17:26;;;;;;;26.93;10.30;;;;;;;-3.22;80.18;100860.22;1667054;86;21024;-76
2022/01/07 06:19:53;;;;;;;21.83;10.93;;;;;;;-3.17;80.46;100856.50;1667202;86;21046;-72
2022/01/07 06:22:20;;;;;;;15.60;7.27;;;;;;;-3.06;80.53;100856.36;1649539;87;21069;-72
2022/01/07 06:24:46;;;;;;;22.97;10.30;;;;;;;-3.01;80.58;100845.81;1667268;86;21044;-73
2022/01/07 06:27:13;;;;;;;17.77;7.50;;;;;;;-2.96;80.56;100844.23;1649394;87;21505;-71
2022/01/07 06:29:40;;;;;;;18.53;7.10;;;;;;;-2.90;80.41;100851.63;1667190;86;21002;-70
2022/01/07 06:32:08;;;;;;;15.33;6.83;;;;;;;-2.83;80.72;100851.80;1667397;86;21591;-71
2022/01/07 06:34:36;;;;;;;12.43;6.53;;;;;;;-2.77;80.45;100857.11;1667286;86;21078;-74
2022/01/07 06:37:04;;;;;;;13.37;6.60;;;;;;;-2.82;79.95;100866.38;1667599;86;21014;-75
2022/01/07 06:39:32;;;;;;;11.57;6.27;;;;;;;-2.89;79.84;100872.17;1667304;86;21922;-71
2022/01/07 06:42:00;;;;;;;17.43;6.50;;;;;;;-2.92;79.88;100872.10;1667388;86;21103;-72
2022/01/07 06:44:28;;;;;;;14.83;7.10;;;;;;;-2.93;79.97;100879.36;1667319;86;21090;-71
2022/01/07 06:46:55;;;;;;;14.80;6.80;;;;;;;-2.97;79.78;100874.96;1667450;86;21591;-72
2022/01/07 06:49:22;;;;;;;12.23;6.70;;;;;;;-2.99;79.90;100863.40;1667310;86;21054;-71
2022/01/07 06:51:50;;;;;;;18.53;8.07;;;;;;;-3.01;79.84;100861.20;1667563;86;21189;-71
2022/01/07 06:54:17;;;;;;;16.27;6.90;;;;;;;-3.06;79.72;100865.77;1667279;86;21014;-71
2022/01/07 06:56:45;;;;;;;17.00;7.70;;;;;;;-3.11;79.77;100868.61;1667428;86;21023;-71
2022/01/07 06:59:13;;;;;;;17.70;7.97;;;;;;;-3.15;79.72;100875.37;1667305;86;21498;-72
2022/01/07 07:01:41;;;;;;;16.87;7.87;;;;;;;-3.22;79.75;100881.15;1667614;86;21035;-71
2022/01/07 07:04:08;;;;;;;15.37;6.27;;;;;;;-3.26;79.89;100872.52;1667252;86;21362;-71
2022/01/07 07:06:35;;;;;;;18.57;7.10;;;;;;;-3.19;80.32;100873.14;1667306;86;21023;-72
2022/01/07 07:09:04;;;;;;;15.53;7.30;;;;;;;-3.14;80.69;100877.09;1667261;86;21054;-72
2022/01/07 07:11:35;;;;;;;16.83;6.97;;;;;;;-3.06;80.79;100876.88;1667370;86;21086;-74
2022/01/07 07:14:01;;;;;;;15.17;7.77;;;;;;;-2.96;81.03;100879.28;1667612;86;21020;-74
2022/01/07 07:16:28;;;;;;;15.27;7.07;;;;;;;-2.90;80.76;100869.17;1667478;86;21147;-71
2022/01/07 07:18:55;;;;;;;17.27;7.60;;;;;;;-2.87;80.62;100874.80;1667477;86;21014;-72
2022/01/07 07:21:22;;;;;;;15.77;7.50;;;;;;;-2.90;80.39;100869.59;1667398;86;21505;-71
2022/01/07 07:23:49;;;;;;;21.53;8.60;;;;;;;-2.87;80.67;100873.51;1667278;86;21068;-71
2022/01/07 07:26:16;;;;;;;16.10;7.43;;;;;;;-2.82;80.57;100871.94;1667376;86;21469;-72
2022/01/07 07:28:43;;;;;;;20.37;8.33;;;;;;;-2.73;80.86;100873.01;1667392;85;21214;-71
2022/01/07 07:31:14;;;;;;;17.57;7.57;;;;;;;-2.66;80.83;100873.16;1667342;86;21008;-71
2022/01/07 07:37:17;;;;;;;15.50;7.10;;;;;;;-2.64;80.50;100880.48;1667560;86;21094;-72
2022/01/07 07:38:56;;;;;;;18.23;7.57;;;;;;;-2.70;80.33;100875.64;1659323;85;21048;-75
2022/01/07 07:41:23;;;;;;;16.23;7.20;;;;;;;-2.71;80.30;100870.08;1667740;86;21132;-72
2022/01/07 07:43:50;;;;;;;19.90;8.10;;;;;;;-2.72;80.32;100867.45;1667295;86;21099;-71
2022/01/07 07:46:18;;;;;;;14.77;7.73;;;;;;;-2.69;80.62;100855.98;1667603;86;21447;-71
2022/01/07 07:48:46;;;;;;;17.43;7.90;;;;;;;-2.57;80.98;100854.15;1667415;86;21496;-75
2022/01/07 07:51:15;;;;;;;18.47;8.40;;;;;;;-2.49;81.03;100850.92;1658228;86;21398;-72
2022/01/07 07:53:46;;;;;;;17.87;7.20;;;;;;;-2.45;80.71;100852.27;1650617;86;21135;-72
2022/01/07 07:56:16;;;;;;;15.13;7.43;;;;;;;-2.49;80.47;100855.20;1649336;87;21015;-72
2022/01/07 07:58:44;;;;;;;17.65;7.75;;;;;;;-2.47;80.61;100857.36;1649194;85;26778;-72
2022/01/07 08:01:12;;;;;;;18.67;7.90;;;;;;;-2.40;80.80;100859.25;1649519;87;21111;-71
2022/01/07 08:03:40;;;;;;;18.43;8.17;;;;;;;-2.37;80.55;100855.47;1649308;87;21047;-72
2022/01/07 08:06:07;;;;;;;16.07;7.57;;;;;;;-2.41;80.22;100856.24;1664421;86;21191;-74
2022/01/07 08:08:36;;;;;;;16.27;7.60;;;;;;;-2.42;80.40;100853.20;1667214;86;21027;-72
2022/01/07 08:11:06;;;;;;;19.53;8.73;;;;;;;-2.39;80.59;100845.98;1667333;86;21078;-72
2022/01/07 08:15:58;;;;;;;15.90;8.00;;;;;;;-2.34;80.82;100840.13;1667226;85;21094;-75
2022/01/07 08:16:06;;;;;;;18.77;8.70;;;;;;;-2.25;81.03;100841.60;1664458;86;20999;-73
2022/01/07 08:18:35;;;;;;;15.67;8.13;;;;;;;-2.16;81.02;100849.06;1638772;87;21184;-72
2022/01/07 08:21:07;;;;;;;19.80;8.85;;;;;;;-2.08;81.17;100846.23;1667461;86;21465;-82
2022/01/07 08:23:36;;;;;;;23.37;9.90;;;;;;;-1.99;81.14;100849.45;1666673;85;21100;-79
2022/01/07 08:26:07;;;;;;;20.05;9.73;;;;;;;-1.96;80.90;100852.94;1667515;86;22164;-72
2022/01/07 08:28:39;;;;;;;;;;;;;;;-1.92;81.06;100852.16;1669712;86;21011;-73
2022/01/07 08:31:25;;;;;;;33.77;15.87;;;;;;;-1.86;80.91;100850.13;1638282;87;21227;-72
2022/01/07 08:36:30;;;;;;;29.83;14.77;;;;;;;-1.84;80.58;100850.61;1650915;87;21093;-71
2022/01/07 08:38:58;;;;;;;30.90;14.18;;;;;;;-1.85;80.63;100851.46;1650960;86;21061;-71
2022/01/07 08:41:30;;;;;;;38.10;14.53;;;;;;;-1.83;80.50;100849.80;1649360;87;21132;-74
2022/01/07 08:43:58;;;;;;;30.27;13.40;;;;;;;-1.84;80.29;100851.03;1649560;87;21832;-79
2022/01/07 08:46:25;;;;;;;25.60;12.43;;;;;;;-1.84;80.60;100854.89;1649094;87;21028;-72
2022/01/07 08:48:52;;;;;;;24.07;12.60;;;;;;;-1.74;80.95;100846.97;1649279;87;21532;-73
2022/01/07 08:51:19;;;;;;;23.60;11.17;;;;;;;-1.65;80.65;100842.00;1648982;87;21566;-74
2022/01/07 08:53:46;;;;;;;25.67;10.77;;;;;;;-1.64;80.50;100843.72;1649150;87;21059;-74
2022/01/07 08:56:13;;;;;;;21.40;9.83;;;;;;;-1.53;81.09;100842.22;1649081;87;21059;-72
2022/01/07 08:58:40;;;;;;;16.80;10.17;;;;;;;-1.42;80.72;100838.58;1650913;85;21492;-74
2022/01/07 09:01:07;;;;;;;21.50;10.67;;;;;;;-1.36;80.54;100847.30;1626220;87;21074;-74
2022/01/07 09:03:34;;;;;;;27.03;13.43;;;;;;;-1.26;80.62;100837.16;1649358;87;21106;-73
2022/01/07 09:06:01;;;;;;;29.37;12.50;;;;;;;-1.15;80.56;100834.36;1649082;87;21163;-73
2022/01/07 09:08:28;;;;;;;39.00;20.10;;;;;;;-1.09;80.28;100829.31;1647243;87;21170;-73
2022/01/07 09:10:55;;;;;;;34.40;16.47;;;;;;;-1.00;80.33;100828.59;1628420;88;21067;-73
2022/01/07 09:13:22;;;;;;;24.47;12.23;;;;;;;-0.88;80.34;100829.25;1628436;88;21056;-74
2022/01/07 09:15:49;;;;;;;32.93;16.53;;;;;;;-0.79;80.22;100834.11;1628337;88;21488;-73
2022/01/07 09:18:18;;;;;;;28.97;16.83;;;;;;;-0.71;80.11;100829.09;1636198;86;21038;-76
2022/01/07 09:20:47;;;;;;;27.23;12.87;;;;;;;-0.60;80.21;100831.41;1631036;87;21203;-73
2022/01/07 09:23:15;;;;;;;28.50;14.07;;;;;;;-0.47;80.18;100826.89;1639726;87;21036;-71
2022/01/07 09:25:42;;;;;;;30.20;14.70;;;;;;;-0.32;80.19;100824.09;1614197;87;21088;-73
2022/01/07 09:28:10;;;;;;;27.27;14.03;;;;;;;-0.20;80.19;100816.52;1602939;89;21592;-71
2022/01/07 09:30:37;;;;;;;28.93;13.73;;;;;;;-0.06;79.91;100812.41;1611968;87;21121;-74
2022/01/07 09:33:04;;;;;;;27.97;13.37;;;;;;;0.05;80.02;100803.52;1614909;87;21140;-74
2022/01/07 09:35:31;;;;;;;21.83;10.83;;;;;;;0.18;79.77;100807.98;1652254;86;21065;-73
2022/01/07 09:37:59;;;;;;;33.60;19.27;;;;;;;0.27;79.39;100805.94;1652255;86;21475;-73
2022/01/07 09:40:26;;;;;;;28.27;15.27;;;;;;;0.35;79.40;100801.73;1646193;86;21079;-72
2022/01/07 09:43:01;;;;;;;26.87;15.67;;;;;;;0.45;79.50;100801.42;1640656;86;21028;-79
2022/01/07 09:45:30;;;;;;;23.10;11.80;;;;;;;0.59;79.48;100793.83;1638185;87;21147;-72
2022/01/07 09:47:58;;;;;;;24.20;13.32;;;;;;;0.75;79.22;100793.52;1612760;89;21109;-73
2022/01/07 09:50:28;;;;;;;28.20;13.43;;;;;;;0.84;79.27;100793.20;1614418;88;21102;-71
2022/01/07 09:52:55;;;;;;;22.50;11.60;;;;;;;0.94;79.02;100786.38;1637344;87;21501;-72
2022/01/07 09:55:24;;;;;;;18.33;8.93;;;;;;;0.99;78.65;100780.84;1613734;88;21082;-72
2022/01/07 09:57:51;;;;;;;18.00;9.37;;;;;;;1.13;78.55;100776.22;1640812;87;22092;-73
2022/01/07 10:00:18;;;;;;;17.13;9.53;;;;;;;1.21;78.32;100770.25;1640651;87;21085;-72
2022/01/07 10:03:07;;;;;;;18.80;9.53;;;;;;;1.33;78.23;100771.64;1652863;86;21074;-77
2022/01/07 10:05:45;;;;;;;15.77;8.60;;;;;;;1.45;78.40;100769.99;1639116;87;21114;-74
2022/01/07 10:08:28;;;;;;;24.00;12.97;;;;;;;1.59;77.94;100768.78;1665910;85;21058;-74
2022/01/07 10:11:20;;;;;;;21.53;10.73;;;;;;;1.69;77.78;100762.78;1666968;86;21149;-79
2022/01/07 10:13:51;;;;;;;18.27;9.13;;;;;;;1.81;77.59;100758.98;1667651;86;21094;-74
2022/01/07 10:16:22;;;;;;;17.83;10.67;;;;;;;1.89;77.03;100759.88;1667371;86;21038;-73
2022/01/07 10:18:50;;;;;;;16.62;9.48;;;;;;;1.96;76.94;100759.03;1667849;86;20995;-79
2022/01/07 10:21:18;;;;;;;15.57;9.90;;;;;;;1.96;76.69;100762.05;1667740;86;21916;-73
2022/01/07 10:23:46;;;;;;;16.87;8.00;;;;;;;2.03;76.62;100756.06;1667859;86;22054;-76
2022/01/07 10:26:17;;;;;;;15.50;8.43;;;;;;;2.03;76.43;100753.91;1667852;86;21039;-74
2022/01/07 10:28:47;;;;;;;19.80;8.30;;;;;;;2.09;76.43;100749.61;1639655;87;21086;-74
2022/01/07 10:31:24;;;;;;;27.93;13.67;;;;;;;2.18;76.43;100746.18;1667884;86;21094;-74
2022/01/07 10:33:53;;;;;;;17.63;8.73;;;;;;;2.25;76.28;100740.62;1667969;86;21582;-74
2022/01/07 10:36:24;;;;;;;37.27;19.30;;;;;;;2.30;76.03;100738.47;1667828;86;21508;-73
2022/01/07 10:38:53;;;;;;;;;;;;;;;2.34;75.86;100748.39;1670465;86;20997;-78
2022/01/07 10:41:22;;;;;;;17.23;9.43;;;;;;;2.44;75.65;100748.84;1668146;86;20153;-73
2022/01/07 10:43:52;;;;;;;16.47;8.17;;;;;;;2.48;75.52;100749.27;1667999;86;21597;-74
2022/01/07 10:46:25;;;;;;;19.02;9.90;;;;;;;2.53;75.47;100735.91;1667963;86;21129;-74
2022/01/07 10:48:59;;;;;;;65.30;25.47;;;;;;;2.69;75.76;100738.09;1668039;86;21115;-74
2022/01/07 10:51:43;;;;;;;24.43;11.00;;;;;;;2.82;75.54;100738.94;1667688;86;21586;-75
2022/01/07 10:54:10;;;;;;;27.03;12.17;;;;;;;2.86;74.94;100735.07;1666565;86;21043;-78
2022/01/07 10:56:42;;;;;;;36.20;15.23;;;;;;;2.95;74.73;100726.88;1668181;86;20999;-75
2022/01/07 10:59:15;;;;;;;69.27;31.27;;;;;;;3.05;74.92;100721.69;1668050;86;21551;-74
2022/01/07 11:01:57;;;;;;;61.70;24.47;;;;;;;3.16;74.60;100721.67;1667933;86;21593;-74
2022/01/07 11:04:33;;;;;;;33.57;13.43;;;;;;;3.26;74.49;100725.95;1668053;86;20927;-73
2022/01/07 11:07:02;;;;;;;34.33;15.10;;;;;;;3.28;74.19;100713.86;1628705;87;21023;-74
2022/01/07 11:09:28;;;;;;;44.00;16.00;;;;;;;3.26;74.08;100710.41;1671518;85;21102;-74
2022/01/07 11:12:02;;;;;;;37.80;14.23;;;;;;;3.20;73.83;100705.69;1639589;87;21305;-78
2022/01/07 11:14:35;;;;;;;27.23;12.77;;;;;;;3.15;73.62;100706.12;1667886;86;21145;-74
2022/01/07 11:17:04;;;;;;;32.90;14.07;;;;;;;3.07;73.66;100700.51;1668162;86;21061;-74
2022/01/07 11:19:38;;;;;;;33.80;12.90;;;;;;;3.08;73.71;100702.25;1667877;86;21070;-73
2022/01/07 11:22:10;;;;;;;36.53;13.97;;;;;;;3.10;73.71;100700.53;1657014;86;21003;-81
2022/01/07 11:24:48;;;;;;;38.37;15.60;;;;;;;3.11;73.38;100694.48;1617260;87;21047;-73
2022/01/07 11:27:20;;;;;;;35.00;13.80;;;;;;;3.05;73.35;100694.94;1668346;86;21137;-79